createdAt,value
2018-02-08T00:00:19.250Z,1.71
2018-02-08T00:00:45.424Z,1.8
2018-02-08T00:01:11.512Z,1.74
2018-02-08T00:01:37.630Z,1.73
2018-02-08T00:02:03.731Z,1.71
2018-02-08T00:02:29.833Z,1.7
2018-02-08T00:02:55.950Z,1.68
2018-02-08T00:03:22.045Z,1.73
2018-02-08T00:03:48.178Z,1.73
2018-02-08T00:04:14.351Z,1.63
2018-02-08T00:04:40.523Z,1.73
2018-02-08T00:05:06.922Z,1.78
2018-02-08T00:05:32.978Z,1.8
2018-02-08T00:05:59.105Z,1.67
2018-02-08T00:06:25.218Z,1.8
2018-02-08T00:06:51.356Z,1.73
2018-02-08T00:07:17.455Z,1.81
2018-02-08T00:07:43.605Z,1.66
2018-02-08T00:08:09.734Z,1.68
2018-02-08T00:08:35.832Z,1.73
2018-02-08T00:09:01.948Z,1.71
2018-02-08T00:09:28.078Z,1.6
2018-02-08T00:09:54.186Z,1.67
2018-02-08T00:10:20.305Z,1.63
2018-02-08T00:10:46.425Z,1.67
2018-02-08T00:11:12.532Z,1.8
2018-02-08T00:11:38.651Z,1.71
2018-02-08T00:12:04.753Z,1.68
2018-02-08T00:12:30.851Z,1.62
2018-02-08T00:12:56.950Z,1.56
2018-02-08T00:13:23.044Z,1.62
2018-02-08T00:13:49.146Z,1.59
2018-02-08T00:14:15.244Z,1.62
2018-02-08T00:14:41.339Z,1.56
2018-02-08T00:15:07.435Z,1.58
2018-02-08T00:15:33.535Z,1.62
2018-02-08T00:15:59.641Z,1.58
2018-02-08T00:16:25.736Z,1.55
2018-02-08T00:16:51.855Z,1.49
2018-02-08T00:17:17.951Z,1.49
2018-02-08T00:17:44.094Z,1.49
2018-02-08T00:18:10.194Z,1.56
2018-02-08T00:18:36.293Z,1.49
2018-02-08T00:19:02.392Z,1.48
2018-02-08T00:19:28.492Z,1.59
2018-02-08T00:19:54.595Z,1.55
2018-02-08T00:20:20.703Z,1.6
2018-02-08T00:20:46.797Z,1.59
2018-02-08T00:21:12.904Z,1.53
2018-02-08T00:21:39.002Z,1.55
2018-02-08T00:22:05.126Z,1.52
2018-02-08T00:22:31.228Z,1.55
2018-02-08T00:22:57.322Z,1.48
2018-02-08T00:23:23.447Z,1.58
2018-02-08T00:23:49.544Z,1.53
2018-02-08T00:24:15.645Z,1.52
2018-02-08T00:24:41.741Z,1.48
2018-02-08T00:25:07.861Z,1.53
2018-02-08T00:25:33.973Z,1.48
2018-02-08T00:26:00.077Z,1.48
2018-02-08T00:26:26.177Z,1.45
2018-02-08T00:26:52.270Z,1.55
2018-02-08T00:27:18.369Z,1.5
2018-02-08T00:27:44.469Z,1.44
2018-02-08T00:28:10.563Z,1.5
2018-02-08T00:28:36.665Z,1.49
2018-02-08T00:29:02.767Z,1.45
2018-02-08T00:29:28.864Z,1.5
2018-02-08T00:29:54.968Z,1.49
2018-02-08T00:30:21.068Z,1.55
2018-02-08T00:30:47.161Z,1.49
2018-02-08T00:31:13.269Z,1.59
2018-02-08T00:31:39.373Z,1.52
2018-02-08T00:32:05.511Z,1.58
2018-02-08T00:32:31.615Z,1.58
2018-02-08T00:32:57.709Z,1.59
2018-02-08T00:33:23.806Z,1.56
2018-02-08T00:33:49.908Z,1.58
2018-02-08T00:34:16.004Z,1.52
2018-02-08T00:34:42.104Z,1.5
2018-02-08T00:35:08.201Z,1.49
2018-02-08T00:35:34.302Z,1.5
2018-02-08T00:36:00.399Z,1.53
2018-02-08T00:36:26.500Z,1.45
2018-02-08T00:36:52.595Z,1.5
2018-02-08T00:37:18.690Z,1.34
2018-02-08T00:37:44.791Z,1.34
2018-02-08T00:38:10.887Z,1.35
2018-02-08T00:38:36.990Z,1.41
2018-02-08T00:39:03.104Z,1.4
2018-02-08T00:39:29.196Z,1.42
2018-02-08T00:39:55.297Z,1.31
2018-02-08T00:40:21.390Z,1.42
2018-02-08T00:40:47.485Z,1.48
2018-02-08T00:41:13.586Z,1.35
2018-02-08T00:41:39.687Z,1.41
2018-02-08T00:42:05.783Z,1.45
2018-02-08T00:42:31.890Z,1.37
2018-02-08T00:42:57.986Z,1.31
2018-02-08T00:43:24.099Z,1.32
2018-02-08T00:43:50.202Z,1.37
2018-02-08T00:44:16.322Z,1.35
2018-02-08T00:44:42.430Z,1.38
2018-02-08T00:45:08.539Z,1.35
2018-02-08T00:45:34.639Z,1.32
2018-02-08T00:46:00.733Z,1.41
2018-02-08T00:46:26.836Z,1.28
2018-02-08T00:46:52.929Z,1.24
2018-02-08T00:47:19.025Z,1.32
2018-02-08T00:47:45.125Z,1.32
2018-02-08T00:48:11.219Z,1.34
2018-02-08T00:48:37.315Z,1.31
2018-02-08T00:49:03.417Z,1.42
2018-02-08T00:49:29.522Z,1.41
2018-02-08T00:49:55.631Z,1.44
2018-02-08T00:50:21.735Z,1.38
2018-02-08T00:50:47.847Z,1.37
2018-02-08T00:51:13.935Z,1.37
2018-02-08T00:51:40.031Z,1.38
2018-02-08T00:52:06.132Z,1.32
2018-02-08T00:52:32.233Z,1.32
2018-02-08T00:52:58.361Z,1.28
2018-02-08T00:53:24.426Z,1.28
2018-02-08T00:53:50.546Z,1.3
2018-02-08T00:54:16.641Z,1.31
2018-02-08T00:54:42.738Z,1.34
2018-02-08T00:55:08.842Z,1.38
2018-02-08T00:55:34.942Z,1.32
2018-02-08T00:56:01.036Z,1.42
2018-02-08T00:56:27.134Z,1.38
2018-02-08T00:56:53.236Z,1.35
2018-02-08T00:57:19.333Z,1.4
2018-02-08T00:57:45.437Z,1.34
2018-02-08T00:58:11.528Z,1.31
2018-02-08T00:58:37.631Z,1.32
2018-02-08T00:59:03.762Z,1.34
2018-02-08T00:59:29.857Z,1.23
2018-02-08T00:59:55.962Z,1.34
2018-02-08T01:00:22.060Z,1.37
2018-02-08T01:00:48.152Z,1.31
2018-02-08T01:01:14.251Z,1.28
2018-02-08T01:01:40.349Z,1.34
2018-02-08T01:02:06.470Z,1.3
2018-02-08T01:02:32.564Z,1.28
2018-02-08T01:02:58.677Z,1.32
2018-02-08T01:03:24.788Z,1.34
2018-02-08T01:03:50.880Z,1.35
2018-02-08T01:04:16.986Z,1.32
2018-02-08T01:04:43.078Z,1.4
2018-02-08T01:05:09.178Z,1.34
2018-02-08T01:05:35.296Z,1.26
2018-02-08T01:06:01.395Z,1.3
2018-02-08T01:06:27.496Z,1.32
2018-02-08T01:06:53.598Z,1.2
2018-02-08T01:07:19.766Z,1.3
2018-02-08T01:07:45.830Z,1.23
2018-02-08T01:08:11.943Z,1.32
2018-02-08T01:08:38.042Z,1.19
2018-02-08T01:09:04.136Z,1.22
2018-02-08T01:09:30.235Z,1.32
2018-02-08T01:09:56.332Z,1.22
2018-02-08T01:10:22.454Z,1.28
2018-02-08T01:10:48.550Z,1.24
2018-02-08T01:11:14.648Z,1.24
2018-02-08T01:11:40.745Z,1.26
2018-02-08T01:12:06.840Z,1.22
2018-02-08T01:12:32.943Z,1.23
2018-02-08T01:12:59.047Z,1.23
2018-02-08T01:13:25.140Z,1.22
2018-02-08T01:13:51.238Z,1.23
2018-02-08T01:14:17.358Z,1.26
2018-02-08T01:14:43.452Z,1.24
2018-02-08T01:15:09.554Z,1.28
2018-02-08T01:15:35.649Z,1.24
2018-02-08T01:16:01.753Z,1.31
2018-02-08T01:16:27.851Z,1.32
2018-02-08T01:16:53.941Z,1.34
2018-02-08T01:17:20.037Z,1.34
2018-02-08T01:17:46.140Z,1.32
2018-02-08T01:18:12.261Z,1.38
2018-02-08T01:18:38.354Z,1.32
2018-02-08T01:19:04.458Z,1.37
2018-02-08T01:19:30.554Z,1.35
2018-02-08T01:19:56.653Z,1.28
2018-02-08T01:20:22.747Z,1.3
2018-02-08T01:20:48.844Z,1.32
2018-02-08T01:21:14.946Z,1.3
2018-02-08T01:21:41.048Z,1.3
2018-02-08T01:22:07.147Z,1.2
2018-02-08T01:22:33.241Z,1.14
2018-02-08T01:22:59.360Z,1.17
2018-02-08T01:23:25.458Z,1.14
2018-02-08T01:23:51.571Z,1.16
2018-02-08T01:24:17.672Z,0.99
2018-02-08T01:24:43.766Z,1.08
2018-02-08T01:25:09.885Z,1.12
2018-02-08T01:25:35.979Z,1.13
2018-02-08T01:26:02.076Z,1.1
2018-02-08T01:26:28.181Z,1.1
2018-02-08T01:26:54.286Z,1.12
2018-02-08T01:27:20.380Z,1.19
2018-02-08T01:27:46.475Z,1.05
2018-02-08T01:28:12.582Z,1.05
2018-02-08T01:28:38.676Z,1.13
2018-02-08T01:29:04.779Z,1.13
2018-02-08T01:29:30.876Z,1.1
2018-02-08T01:29:56.973Z,1.14
2018-02-08T01:30:23.072Z,1.08
2018-02-08T01:30:49.169Z,1.12
2018-02-08T01:31:15.267Z,1.19
2018-02-08T01:31:41.370Z,1.06
2018-02-08T01:32:07.469Z,1.06
2018-02-08T01:32:33.565Z,1.14
2018-02-08T01:32:59.672Z,1.13
2018-02-08T01:33:25.789Z,1.13
2018-02-08T01:33:51.880Z,1.12
2018-02-08T01:34:17.986Z,1.12
2018-02-08T01:34:44.078Z,1.16
2018-02-08T01:35:10.175Z,1.13
2018-02-08T01:35:36.276Z,1.14
2018-02-08T01:36:02.377Z,1.05
2018-02-08T01:36:28.481Z,1.1
2018-02-08T01:36:54.594Z,1.08
2018-02-08T01:37:20.727Z,1.17
2018-02-08T01:37:46.822Z,1.13
2018-02-08T01:38:12.924Z,1.01
2018-02-08T01:38:39.017Z,1.1
2018-02-08T01:39:05.117Z,1.12
2018-02-08T01:39:31.213Z,1.16
2018-02-08T01:39:57.309Z,0.99
2018-02-08T01:40:23.433Z,1.04
2018-02-08T01:40:49.538Z,1.04
2018-02-08T01:41:15.625Z,0.95
2018-02-08T01:41:41.721Z,0.88
2018-02-08T01:42:07.824Z,1.01
2018-02-08T01:42:33.920Z,0.96
2018-02-08T01:43:00.020Z,1.01
2018-02-08T01:43:26.119Z,1.02
2018-02-08T01:43:52.218Z,0.92
2018-02-08T01:44:18.317Z,0.98
2018-02-08T01:44:44.417Z,0.96
2018-02-08T01:45:10.519Z,0.92
2018-02-08T01:45:36.627Z,0.96
2018-02-08T01:46:02.722Z,0.99
2018-02-08T01:46:28.842Z,1.06
2018-02-08T01:46:54.953Z,1.04
2018-02-08T01:47:21.058Z,0.95
2018-02-08T01:47:47.156Z,0.94
2018-02-08T01:48:13.267Z,1.02
2018-02-08T01:48:39.363Z,0.99
2018-02-08T01:49:05.454Z,1.06
2018-02-08T01:49:31.553Z,0.95
2018-02-08T01:49:57.650Z,1.08
2018-02-08T01:50:23.751Z,1.05
2018-02-08T01:50:49.847Z,1.05
2018-02-08T01:51:15.945Z,0.95
2018-02-08T01:51:42.059Z,0.98
2018-02-08T01:52:08.170Z,1.04
2018-02-08T01:52:34.277Z,1.12
2018-02-08T01:53:00.378Z,1.08
2018-02-08T01:53:26.478Z,1.02
2018-02-08T01:53:52.574Z,1.16
2018-02-08T01:54:18.671Z,1.14
2018-02-08T01:54:44.971Z,1.13
2018-02-08T01:55:11.073Z,1.1
2018-02-08T01:55:37.170Z,1.12
2018-02-08T01:56:03.303Z,1.08
2018-02-08T01:56:29.406Z,1.16
2018-02-08T01:56:55.500Z,1.12
2018-02-08T01:57:21.600Z,1.1
2018-02-08T01:57:47.696Z,1.1
2018-02-08T01:58:13.799Z,1.16
2018-02-08T01:58:39.898Z,1.12
2018-02-08T01:59:05.998Z,1.13
2018-02-08T01:59:32.100Z,1.08
2018-02-08T01:59:58.197Z,1.08
2018-02-08T02:00:24.315Z,1.2
2018-02-08T02:00:50.414Z,1.14
2018-02-08T02:01:16.518Z,0.98
2018-02-08T02:01:42.620Z,0.98
2018-02-08T02:02:08.717Z,1.02
2018-02-08T02:02:34.822Z,1.06
2018-02-08T02:03:00.915Z,1.12
2018-02-08T02:03:27.016Z,1.14
2018-02-08T02:03:53.121Z,1.12
2018-02-08T02:04:19.215Z,1.04
2018-02-08T02:04:45.318Z,1.14
2018-02-08T02:05:11.434Z,1.05
2018-02-08T02:05:37.539Z,1.02
2018-02-08T02:06:03.639Z,1.08
2018-02-08T02:06:29.748Z,1.13
2018-02-08T02:06:55.853Z,1.2
2018-02-08T02:07:21.950Z,1.12
2018-02-08T02:07:48.070Z,1.13
2018-02-08T02:08:14.169Z,1.1
2018-02-08T02:08:40.273Z,1.12
2018-02-08T02:09:06.368Z,1.08
2018-02-08T02:09:32.469Z,1.08
2018-02-08T02:09:58.586Z,1.14
2018-02-08T02:10:24.684Z,1.14
2018-02-08T02:10:50.786Z,1.1
2018-02-08T02:11:16.899Z,1.14
2018-02-08T02:11:42.993Z,1.16
2018-02-08T02:12:09.091Z,1.16
2018-02-08T02:12:35.199Z,1.3
2018-02-08T02:13:01.298Z,1.19
2018-02-08T02:13:27.401Z,1.16
2018-02-08T02:13:53.492Z,1.19
2018-02-08T02:14:19.599Z,1.19
2018-02-08T02:14:45.693Z,1.14
2018-02-08T02:15:11.799Z,1.17
2018-02-08T02:15:37.897Z,1.17
2018-02-08T02:16:03.995Z,1.2
2018-02-08T02:16:30.098Z,1.17
2018-02-08T02:16:56.187Z,1.14
2018-02-08T02:17:22.285Z,1.17
2018-02-08T02:17:48.391Z,1.08
2018-02-08T02:18:14.493Z,1.02
2018-02-08T02:18:40.591Z,1.04
2018-02-08T02:19:06.690Z,0.98
2018-02-08T02:19:32.789Z,0.99
2018-02-08T02:19:58.893Z,1.01
2018-02-08T02:20:24.989Z,1.05
2018-02-08T02:20:51.117Z,1.04
2018-02-08T02:21:17.190Z,0.96
2018-02-08T02:21:43.294Z,1.01
2018-02-08T02:22:09.393Z,0.98
2018-02-08T02:22:35.494Z,1.01
2018-02-08T02:23:01.590Z,0.91
2018-02-08T02:23:27.722Z,1.01
2018-02-08T02:23:53.842Z,1.01
2018-02-08T02:24:19.938Z,0.99
2018-02-08T02:24:46.042Z,1.04
2018-02-08T02:25:12.142Z,1.06
2018-02-08T02:25:38.238Z,1.14
2018-02-08T02:26:04.341Z,1.1
2018-02-08T02:26:30.456Z,0.94
2018-02-08T02:26:56.554Z,0.99
2018-02-08T02:27:22.656Z,1.01
2018-02-08T02:27:48.755Z,1.01
2018-02-08T02:28:14.853Z,1.04
2018-02-08T02:28:40.948Z,1.01
2018-02-08T02:29:07.051Z,0.99
2018-02-08T02:29:33.149Z,1.04
2018-02-08T02:29:59.249Z,0.98
2018-02-08T02:30:25.365Z,1.01
2018-02-08T02:30:51.462Z,1.1
2018-02-08T02:31:17.566Z,1.04
2018-02-08T02:31:43.662Z,1.05
2018-02-08T02:32:09.765Z,1.05
2018-02-08T02:32:35.862Z,1.06
2018-02-08T02:33:01.963Z,1.01
2018-02-08T02:33:28.066Z,1.02
2018-02-08T02:33:54.167Z,1.02
2018-02-08T02:34:20.266Z,0.94
2018-02-08T02:34:46.367Z,0.95
2018-02-08T02:35:12.465Z,0.92
2018-02-08T02:35:38.595Z,0.96
2018-02-08T02:36:04.691Z,0.96
2018-02-08T02:36:30.786Z,0.87
2018-02-08T02:36:56.880Z,0.92
2018-02-08T02:37:22.984Z,0.91
2018-02-08T02:37:49.080Z,0.94
2018-02-08T02:38:15.187Z,0.77
2018-02-08T02:38:41.306Z,0.81
2018-02-08T02:39:07.405Z,0.78
2018-02-08T02:39:33.509Z,0.86
2018-02-08T02:39:59.599Z,0.83
2018-02-08T02:40:25.704Z,0.92
2018-02-08T02:40:51.817Z,0.86
2018-02-08T02:41:17.918Z,0.87
2018-02-08T02:41:44.021Z,0.92
2018-02-08T02:42:10.119Z,0.77
2018-02-08T02:42:36.214Z,0.88
2018-02-08T02:43:02.312Z,0.96
2018-02-08T02:43:28.411Z,0.94
2018-02-08T02:43:54.510Z,0.98
2018-02-08T02:44:20.607Z,0.98
2018-02-08T02:44:46.709Z,1.01
2018-02-08T02:45:12.805Z,1.06
2018-02-08T02:45:38.904Z,1.02
2018-02-08T02:46:05.026Z,1.04
2018-02-08T02:46:31.128Z,0.96
2018-02-08T02:46:57.236Z,0.94
2018-02-08T02:47:23.340Z,1.06
2018-02-08T02:47:49.440Z,0.92
2018-02-08T02:48:15.537Z,0.99
2018-02-08T02:48:41.640Z,0.87
2018-02-08T02:49:07.738Z,0.94
2018-02-08T02:49:33.838Z,0.96
2018-02-08T02:49:59.942Z,1.05
2018-02-08T02:50:26.050Z,0.98
2018-02-08T02:50:52.154Z,0.96
2018-02-08T02:51:18.249Z,1.01
2018-02-08T02:51:44.353Z,1.01
2018-02-08T02:52:10.470Z,1.05
2018-02-08T02:52:36.565Z,0.96
2018-02-08T02:53:02.673Z,1.01
2018-02-08T02:53:28.768Z,1.1
2018-02-08T02:53:54.882Z,1.06
2018-02-08T02:54:20.985Z,0.98
2018-02-08T02:54:47.095Z,0.98
2018-02-08T02:55:13.198Z,1.1
2018-02-08T02:55:39.298Z,1.06
2018-02-08T02:56:05.394Z,1.08
2018-02-08T02:56:31.491Z,0.92
2018-02-08T02:56:57.589Z,0.96
2018-02-08T02:57:23.689Z,0.99
2018-02-08T02:57:49.793Z,0.95
2018-02-08T02:58:15.901Z,0.99
2018-02-08T02:58:42.022Z,0.98
2018-02-08T02:59:08.119Z,0.96
2018-02-08T02:59:34.220Z,1.01
2018-02-08T03:00:00.340Z,1.02
2018-02-08T03:00:26.434Z,0.96
2018-02-08T03:00:52.534Z,0.98
2018-02-08T03:01:18.639Z,0.92
2018-02-08T03:01:44.733Z,1.01
2018-02-08T03:02:10.829Z,0.92
2018-02-08T03:02:36.925Z,0.94
2018-02-08T03:03:03.029Z,0.95
2018-02-08T03:03:29.128Z,1.05
2018-02-08T03:03:55.228Z,1.01
2018-02-08T03:04:21.327Z,0.98
2018-02-08T03:04:47.429Z,1.02
2018-02-08T03:05:13.532Z,0.96
2018-02-08T03:05:39.628Z,0.94
2018-02-08T03:06:05.746Z,0.87
2018-02-08T03:06:31.838Z,0.98
2018-02-08T03:06:57.943Z,0.96
2018-02-08T03:07:24.042Z,0.92
2018-02-08T03:07:50.138Z,0.94
2018-02-08T03:08:16.240Z,0.94
2018-02-08T03:08:42.335Z,0.87
2018-02-08T03:09:08.444Z,0.94
2018-02-08T03:09:34.534Z,0.94
2018-02-08T03:10:00.637Z,0.88
2018-02-08T03:10:26.737Z,0.95
2018-02-08T03:10:52.834Z,0.95
2018-02-08T03:11:18.937Z,0.87
2018-02-08T03:11:45.033Z,0.94
2018-02-08T03:12:11.130Z,0.92
2018-02-08T03:12:37.231Z,0.92
2018-02-08T03:13:03.332Z,0.81
2018-02-08T03:13:29.442Z,0.83
2018-02-08T03:13:55.538Z,0.76
2018-02-08T03:14:21.644Z,0.92
2018-02-08T03:14:47.764Z,0.76
2018-02-08T03:15:13.861Z,0.86
2018-02-08T03:15:39.964Z,0.88
2018-02-08T03:16:06.086Z,0.88
2018-02-08T03:16:32.183Z,0.98
2018-02-08T03:16:58.277Z,0.92
2018-02-08T03:17:24.376Z,0.98
2018-02-08T03:17:50.477Z,0.87
2018-02-08T03:18:16.580Z,0.87
2018-02-08T03:18:42.674Z,0.77
2018-02-08T03:19:08.776Z,0.94
2018-02-08T03:19:34.872Z,0.91
2018-02-08T03:20:00.969Z,0.88
2018-02-08T03:20:27.075Z,0.94
2018-02-08T03:20:53.173Z,0.81
2018-02-08T03:21:19.300Z,0.83
2018-02-08T03:21:45.398Z,0.7
2018-02-08T03:22:11.502Z,0.69
2018-02-08T03:22:37.597Z,0.62
2018-02-08T03:23:03.701Z,0.74
2018-02-08T03:23:29.805Z,0.69
2018-02-08T03:23:55.915Z,0.7
2018-02-08T03:24:22.014Z,0.73
2018-02-08T03:24:48.109Z,0.76
2018-02-08T03:25:14.212Z,0.76
2018-02-08T03:25:40.310Z,0.76
2018-02-08T03:26:06.414Z,0.65
2018-02-08T03:26:32.510Z,0.66
2018-02-08T03:26:58.613Z,0.7
2018-02-08T03:27:24.711Z,0.74
2018-02-08T03:27:50.807Z,0.62
2018-02-08T03:28:16.929Z,0.56
2018-02-08T03:28:43.032Z,0.62
2018-02-08T03:29:09.150Z,0.7
2018-02-08T03:29:35.244Z,0.74
2018-02-08T03:30:01.353Z,0.73
2018-02-08T03:30:27.457Z,0.77
2018-02-08T03:30:53.638Z,0.8
2018-02-08T03:31:19.682Z,0.8
2018-02-08T03:31:45.781Z,0.8
2018-02-08T03:32:11.882Z,0.86
2018-02-08T03:32:37.980Z,0.8
2018-02-08T03:33:04.112Z,0.69
2018-02-08T03:33:30.218Z,0.63
2018-02-08T03:33:56.307Z,0.74
2018-02-08T03:34:22.402Z,0.76
2018-02-08T03:34:48.523Z,0.66
2018-02-08T03:35:14.617Z,0.69
2018-02-08T03:35:40.717Z,0.7
2018-02-08T03:36:06.828Z,0.7
2018-02-08T03:36:32.936Z,0.69
2018-02-08T03:36:59.034Z,0.65
2018-02-08T03:37:25.133Z,0.65
2018-02-08T03:37:51.224Z,0.66
2018-02-08T03:38:17.327Z,0.76
2018-02-08T03:38:43.428Z,0.65
2018-02-08T03:39:09.529Z,0.7
2018-02-08T03:39:35.630Z,0.69
2018-02-08T03:40:01.727Z,0.62
2018-02-08T03:40:27.821Z,0.69
2018-02-08T03:40:53.925Z,0.66
2018-02-08T03:41:20.024Z,0.68
2018-02-08T03:41:46.120Z,0.76
2018-02-08T03:42:12.223Z,0.59
2018-02-08T03:42:38.323Z,0.66
2018-02-08T03:43:04.420Z,0.65
2018-02-08T03:43:30.524Z,0.65
2018-02-08T03:43:56.638Z,0.68
2018-02-08T03:44:22.730Z,0.6
2018-02-08T03:44:48.831Z,0.62
2018-02-08T03:45:14.934Z,0.58
2018-02-08T03:45:41.030Z,0.55
2018-02-08T03:46:07.132Z,0.66
2018-02-08T03:46:33.232Z,0.6
2018-02-08T03:46:59.324Z,0.58
2018-02-08T03:47:25.429Z,0.58
2018-02-08T03:47:51.541Z,0.55
2018-02-08T03:48:17.650Z,0.69
2018-02-08T03:48:43.746Z,0.63
2018-02-08T03:49:09.842Z,0.65
2018-02-08T03:49:35.942Z,0.65
2018-02-08T03:50:02.045Z,0.6
2018-02-08T03:50:28.144Z,0.62
2018-02-08T03:50:54.259Z,0.73
2018-02-08T03:51:20.359Z,0.65
2018-02-08T03:51:46.454Z,0.58
2018-02-08T03:52:12.561Z,0.63
2018-02-08T03:52:38.676Z,0.73
2018-02-08T03:53:04.777Z,0.62
2018-02-08T03:53:30.877Z,0.59
2018-02-08T03:53:56.976Z,0.63
2018-02-08T03:54:23.071Z,0.65
2018-02-08T03:54:49.169Z,0.63
2018-02-08T03:55:15.262Z,0.66
2018-02-08T03:55:41.361Z,0.68
2018-02-08T03:56:07.468Z,0.65
2018-02-08T03:56:33.573Z,0.74
2018-02-08T03:56:59.668Z,0.58
2018-02-08T03:57:25.773Z,0.68
2018-02-08T03:57:51.865Z,0.74
2018-02-08T03:58:17.963Z,0.65
2018-02-08T03:58:44.060Z,0.73
2018-02-08T03:59:10.160Z,0.62
2018-02-08T03:59:36.256Z,0.69
2018-02-08T04:00:02.361Z,0.6
2018-02-08T04:00:28.465Z,0.44
2018-02-08T04:00:54.562Z,0.55
2018-02-08T04:01:20.666Z,0.52
2018-02-08T04:01:46.762Z,0.49
2018-02-08T04:02:12.860Z,0.52
2018-02-08T04:02:38.967Z,0.55
2018-02-08T04:03:05.061Z,0.55
2018-02-08T04:03:31.160Z,0.47
2018-02-08T04:03:57.263Z,0.47
2018-02-08T04:04:23.367Z,0.43
2018-02-08T04:04:49.461Z,0.46
2018-02-08T04:05:15.559Z,0.52
2018-02-08T04:05:41.679Z,0.47
2018-02-08T04:06:07.780Z,0.46
2018-02-08T04:06:33.880Z,0.47
2018-02-08T04:06:59.975Z,0.49
2018-02-08T04:07:26.080Z,0.44
2018-02-08T04:07:52.174Z,0.56
2018-02-08T04:08:18.278Z,0.47
2018-02-08T04:08:44.377Z,0.52
2018-02-08T04:09:10.494Z,0.5
2018-02-08T04:09:36.595Z,0.56
2018-02-08T04:10:02.695Z,0.43
2018-02-08T04:10:28.797Z,0.46
2018-02-08T04:10:54.890Z,0.43
2018-02-08T04:11:20.987Z,0.47
2018-02-08T04:11:47.086Z,0.44
2018-02-08T04:12:13.186Z,0.37
2018-02-08T04:12:39.292Z,0.4
2018-02-08T04:13:05.386Z,0.36
2018-02-08T04:13:31.489Z,0.29
2018-02-08T04:13:57.598Z,0.44
2018-02-08T04:14:23.691Z,0.4
2018-02-08T04:14:49.795Z,0.37
2018-02-08T04:15:15.889Z,0.36
2018-02-08T04:15:41.997Z,0.39
2018-02-08T04:16:08.105Z,0.37
2018-02-08T04:16:34.204Z,0.44
2018-02-08T04:17:00.307Z,0.46
2018-02-08T04:17:26.403Z,0.46
2018-02-08T04:17:52.501Z,0.56
2018-02-08T04:18:18.611Z,0.49
2018-02-08T04:18:44.714Z,0.52
2018-02-08T04:19:10.828Z,0.52
2018-02-08T04:19:36.925Z,0.5
2018-02-08T04:20:03.041Z,0.58
2018-02-08T04:20:29.139Z,0.59
2018-02-08T04:20:55.243Z,0.58
2018-02-08T04:21:21.338Z,0.46
2018-02-08T04:21:47.439Z,0.6
2018-02-08T04:22:13.535Z,0.4
2018-02-08T04:22:39.635Z,0.37
2018-02-08T04:23:05.745Z,0.44
2018-02-08T04:23:31.844Z,0.44
2018-02-08T04:23:57.947Z,0.41
2018-02-08T04:24:24.066Z,0.49
2018-02-08T04:24:50.179Z,0.44
2018-02-08T04:25:16.279Z,0.52
2018-02-08T04:25:42.398Z,0.4
2018-02-08T04:26:08.496Z,0.55
2018-02-08T04:26:34.617Z,0.46
2018-02-08T04:27:00.716Z,0.4
2018-02-08T04:27:26.834Z,0.46
2018-02-08T04:27:52.934Z,0.47
2018-02-08T04:28:19.027Z,0.5
2018-02-08T04:28:45.130Z,0.47
2018-02-08T04:29:11.227Z,0.44
2018-02-08T04:29:37.323Z,0.44
2018-02-08T04:30:03.427Z,0.47
2018-02-08T04:30:29.527Z,0.49
2018-02-08T04:30:55.623Z,0.56
2018-02-08T04:31:21.721Z,0.49
2018-02-08T04:31:47.821Z,0.47
2018-02-08T04:32:13.953Z,0.47
2018-02-08T04:32:40.018Z,0.47
2018-02-08T04:33:06.116Z,0.47
2018-02-08T04:33:32.232Z,0.49
2018-02-08T04:33:58.336Z,0.56
2018-02-08T04:34:24.429Z,0.36
2018-02-08T04:34:50.525Z,0.47
2018-02-08T04:35:16.630Z,0.4
2018-02-08T04:35:42.722Z,0.49
2018-02-08T04:36:08.829Z,0.49
2018-02-08T04:36:34.925Z,0.44
2018-02-08T04:37:01.024Z,0.5
2018-02-08T04:37:27.122Z,0.4
2018-02-08T04:37:53.225Z,0.39
2018-02-08T04:38:19.339Z,0.39
2018-02-08T04:38:45.434Z,0.4
2018-02-08T04:39:11.534Z,0.34
2018-02-08T04:39:37.630Z,0.36
2018-02-08T04:40:03.736Z,0.34
2018-02-08T04:40:29.831Z,0.47
2018-02-08T04:40:55.930Z,0.44
2018-02-08T04:41:22.029Z,0.47
2018-02-08T04:41:48.132Z,0.5
2018-02-08T04:42:14.227Z,0.49
2018-02-08T04:42:40.326Z,0.4
2018-02-08T04:43:06.425Z,0.55
2018-02-08T04:43:32.520Z,0.52
2018-02-08T04:43:58.621Z,0.43
2018-02-08T04:44:24.728Z,0.49
2018-02-08T04:44:50.824Z,0.44
2018-02-08T04:45:16.926Z,0.49
2018-02-08T04:45:43.026Z,0.49
2018-02-08T04:46:09.123Z,0.46
2018-02-08T04:46:35.241Z,0.56
2018-02-08T04:47:01.336Z,0.5
2018-02-08T04:47:27.436Z,0.43
2018-02-08T04:47:53.536Z,0.41
2018-02-08T04:48:19.633Z,0.44
2018-02-08T04:48:45.735Z,0.4
2018-02-08T04:49:11.832Z,0.43
2018-02-08T04:49:37.930Z,0.43
2018-02-08T04:50:04.033Z,0.43
2018-02-08T04:50:30.128Z,0.52
2018-02-08T04:50:56.236Z,0.41
2018-02-08T04:51:22.339Z,0.5
2018-02-08T04:51:48.434Z,0.44
2018-02-08T04:52:14.535Z,0.52
2018-02-08T04:52:40.632Z,0.55
2018-02-08T04:53:06.728Z,0.6
2018-02-08T04:53:32.831Z,0.56
2018-02-08T04:53:58.933Z,0.59
2018-02-08T04:54:25.030Z,0.49
2018-02-08T04:54:51.125Z,0.49
2018-02-08T04:55:17.228Z,0.46
2018-02-08T04:55:43.325Z,0.46
2018-02-08T04:56:09.427Z,0.5
2018-02-08T04:56:35.545Z,0.43
2018-02-08T04:57:01.641Z,0.46
2018-02-08T04:57:27.740Z,0.34
2018-02-08T04:57:53.833Z,0.26
2018-02-08T04:58:19.932Z,0.16
2018-02-08T04:58:46.032Z,0.21
2018-02-08T04:59:12.153Z,0.21
2018-02-08T04:59:38.255Z,0.22
2018-02-08T05:00:04.350Z,0.21
2018-02-08T05:00:30.455Z,0.31
2018-02-08T05:00:56.546Z,0.18
2018-02-08T05:01:22.644Z,0.19
2018-02-08T05:01:48.748Z,0.32
2018-02-08T05:02:14.837Z,0.36
2018-02-08T05:02:40.939Z,0.34
2018-02-08T05:03:07.039Z,0.39
2018-02-08T05:03:33.141Z,0.29
2018-02-08T05:03:59.248Z,0.4
2018-02-08T05:04:25.348Z,0.34
2018-02-08T05:04:51.457Z,0.36
2018-02-08T05:05:17.553Z,0.34
2018-02-08T05:05:43.649Z,0.29
2018-02-08T05:06:09.746Z,0.39
2018-02-08T05:06:35.841Z,0.31
2018-02-08T05:07:01.943Z,0.29
2018-02-08T05:07:28.040Z,0.37
2018-02-08T05:07:54.140Z,0.36
2018-02-08T05:08:20.238Z,0.36
2018-02-08T05:08:46.350Z,0.44
2018-02-08T05:09:12.466Z,0.43
2018-02-08T05:09:38.565Z,0.32
2018-02-08T05:10:04.713Z,0.39
2018-02-08T05:10:30.804Z,0.34
2018-02-08T05:10:56.934Z,0.4
2018-02-08T05:11:23.041Z,0.41
2018-02-08T05:11:49.137Z,0.37
2018-02-08T05:12:15.237Z,0.39
2018-02-08T05:12:41.334Z,0.44
2018-02-08T05:13:07.436Z,0.4
2018-02-08T05:13:33.529Z,0.5
2018-02-08T05:13:59.633Z,0.47
2018-02-08T05:14:25.731Z,0.46
2018-02-08T05:14:51.826Z,0.5
2018-02-08T05:15:17.930Z,0.52
2018-02-08T05:15:44.024Z,0.46
2018-02-08T05:16:10.124Z,0.52
2018-02-08T05:16:36.226Z,0.49
2018-02-08T05:17:02.345Z,0.49
2018-02-08T05:17:28.444Z,0.52
2018-02-08T05:17:54.539Z,0.41
2018-02-08T05:18:20.637Z,0.32
2018-02-08T05:18:46.739Z,0.18
2018-02-08T05:19:12.844Z,0.28
2018-02-08T05:19:38.947Z,0.32
2018-02-08T05:20:05.041Z,0.37
2018-02-08T05:20:31.139Z,0.36
2018-02-08T05:20:57.241Z,0.32
2018-02-08T05:21:23.336Z,0.39
2018-02-08T05:21:49.457Z,0.43
2018-02-08T05:22:15.550Z,0.44
2018-02-08T05:22:41.648Z,0.52
2018-02-08T05:23:07.760Z,0.49
2018-02-08T05:23:33.859Z,0.55
2018-02-08T05:23:59.962Z,0.36
2018-02-08T05:24:26.064Z,0.46
2018-02-08T05:24:52.184Z,0.46
2018-02-08T05:25:18.289Z,0.41
2018-02-08T05:25:44.387Z,0.56
2018-02-08T05:26:10.479Z,0.52
2018-02-08T05:26:36.576Z,0.43
2018-02-08T05:27:02.683Z,0.43
2018-02-08T05:27:28.778Z,0.52
2018-02-08T05:27:54.881Z,0.55
2018-02-08T05:28:20.976Z,0.69
2018-02-08T05:28:47.075Z,0.58
2018-02-08T05:29:13.176Z,0.6
2018-02-08T05:29:39.275Z,0.58
2018-02-08T05:30:05.377Z,0.63
2018-02-08T05:30:31.477Z,0.59
2018-02-08T05:30:57.579Z,0.56
2018-02-08T05:31:23.679Z,0.74
2018-02-08T05:31:49.773Z,0.7
2018-02-08T05:32:15.873Z,0.62
2018-02-08T05:32:41.974Z,0.66
2018-02-08T05:33:08.077Z,0.58
2018-02-08T05:33:34.172Z,0.62
2018-02-08T05:34:00.267Z,0.63
2018-02-08T05:34:26.369Z,0.62
2018-02-08T05:34:52.464Z,0.65
2018-02-08T05:35:18.604Z,0.62
2018-02-08T05:35:44.701Z,0.68
2018-02-08T05:36:10.808Z,0.6
2018-02-08T05:36:36.923Z,0.63
2018-02-08T05:37:03.018Z,0.69
2018-02-08T05:37:29.133Z,0.65
2018-02-08T05:37:55.236Z,0.63
2018-02-08T05:38:21.330Z,0.62
2018-02-08T05:38:47.431Z,0.69
2018-02-08T05:39:13.531Z,0.74
2018-02-08T05:39:39.629Z,0.73
2018-02-08T05:40:05.733Z,0.7
2018-02-08T05:40:31.827Z,0.76
2018-02-08T05:40:57.931Z,0.69
2018-02-08T05:41:24.030Z,0.76
2018-02-08T05:41:50.124Z,0.78
2018-02-08T05:42:16.222Z,0.69
2018-02-08T05:42:42.321Z,0.73
2018-02-08T05:43:08.427Z,0.83
2018-02-08T05:43:34.524Z,0.8
2018-02-08T05:44:00.622Z,0.81
2018-02-08T05:44:26.725Z,0.81
2018-02-08T05:44:52.846Z,0.77
2018-02-08T05:45:18.968Z,0.83
2018-02-08T05:45:45.064Z,0.8
2018-02-08T05:46:11.163Z,0.81
2018-02-08T05:46:37.259Z,0.84
2018-02-08T05:47:03.359Z,0.8
2018-02-08T05:47:29.449Z,0.83
2018-02-08T05:47:55.550Z,0.78
2018-02-08T05:48:21.656Z,0.77
2018-02-08T05:48:47.778Z,0.87